South Pass, Louisiana
Current Conditions -  °F | °C
As of 11:51 AM on Saturday 25 Oct 2014 (Local Time) from KBVE Reporting Station
Clear Clear  
Wind Chill: 73°   Ceiling: Unl
Heat Index: 73°   Visibility: 10mi
Dew Point: 54°   Wind: 8mph
Humidity: 51%   Direction: 40°NE
Pressure: 30.15"   Gusts: NA
Location:  29.2037°N, 89.3875°W
Report Text: KBVE 251651Z AUTO 04007KT 10SM CLR 23/12 A3015 RMK AO2 SLP209 T02280122
Loading
Personal Weather Stations






























Interactive Weather Map New forecast layout! Learn more

10-Day Weather Forecast

Advertisements
Track Severe Weather on mobile